createdAt,value
2019-03-26T00:03:00.115Z,65.56
2019-03-26T00:08:02.920Z,65.89
2019-03-26T00:13:06.039Z,66.31
2019-03-26T00:18:08.828Z,65.62
2019-03-26T00:23:11.184Z,65.53
2019-03-26T00:28:14.235Z,65.61
2019-03-26T00:33:17.155Z,65.56
2019-03-26T00:38:19.513Z,65.96
2019-03-26T00:43:22.410Z,65.70
2019-03-26T00:48:25.409Z,65.94
2019-03-26T00:53:28.703Z,66.08
2019-03-26T00:58:31.842Z,66.54
2019-03-26T01:03:34.547Z,66.84
2019-03-26T01:08:48.201Z,66.93
2019-03-26T01:13:50.857Z,66.39
2019-03-26T01:18:53.226Z,66.15
2019-03-26T01:23:55.643Z,66.17
2019-03-26T01:28:57.867Z,66.24
2019-03-26T01:34:00.404Z,66.18
2019-03-26T01:39:03.057Z,66.01
2019-03-26T01:44:05.315Z,66.32
2019-03-26T01:49:07.654Z,66.43
2019-03-26T01:54:10.801Z,65.04
2019-03-26T01:59:13.262Z,64.80
2019-03-26T02:04:15.629Z,64.68
2019-03-26T02:09:18.241Z,65.23
2019-03-26T02:14:20.625Z,65.10
2019-03-26T02:19:23.092Z,65.01
2019-03-26T02:24:25.522Z,65.20
2019-03-26T02:29:27.964Z,65.65
2019-03-26T02:34:30.424Z,66.12
2019-03-26T02:39:33.717Z,66.47
2019-03-26T02:44:36.063Z,66.36
2019-03-26T02:49:46.797Z,66.57
2019-03-26T02:54:49.343Z,66.74
2019-03-26T02:59:51.672Z,66.70
2019-03-26T03:04:54.387Z,67.02
2019-03-26T03:09:57.296Z,67.26
2019-03-26T03:15:00.536Z,67.50
2019-03-26T03:20:03.545Z,67.59
2019-03-26T03:25:06.080Z,67.95
2019-03-26T03:30:08.518Z,68.24
2019-03-26T03:35:12.490Z,68.36
2019-03-26T03:40:14.885Z,68.38
2019-03-26T03:45:30.047Z,68.64
2019-03-26T03:50:32.676Z,68.73
2019-03-26T03:55:35.580Z,69.18
2019-03-26T04:00:38.634Z,69.82
2019-03-26T04:05:41.583Z,69.62
2019-03-26T04:10:44.442Z,69.65
2019-03-26T04:15:46.779Z,70.08
2019-03-26T04:20:49.834Z,70.64
2019-03-26T04:25:52.315Z,70.54
2019-03-26T04:30:54.631Z,70.61
2019-03-26T04:35:57.093Z,71.15
2019-03-26T04:41:00.720Z,71.64
2019-03-26T04:46:03.984Z,72.00
2019-03-26T04:51:06.428Z,72.14
2019-03-26T04:56:09.127Z,71.99
2019-03-26T05:01:11.581Z,72.32
2019-03-26T05:06:14.980Z,72.06
2019-03-26T05:11:17.623Z,71.60
2019-03-26T05:16:19.917Z,71.46
2019-03-26T05:21:22.741Z,71.54
2019-03-26T05:26:26.068Z,71.44
2019-03-26T05:31:28.588Z,71.24
2019-03-26T05:36:30.828Z,70.85
2019-03-26T05:41:35.266Z,71.08
2019-03-26T05:46:41.745Z,71.47
2019-03-26T05:51:49.762Z,72.59
2019-03-26T05:56:52.941Z,72.73
2019-03-26T06:01:55.351Z,73.23
2019-03-26T06:07:04.706Z,74.04
2019-03-26T06:12:02.061Z,74.33
2019-03-26T06:17:04.552Z,74.69
2019-03-26T06:22:06.819Z,74.64
2019-03-26T06:27:09.200Z,74.26
2019-03-26T06:32:11.521Z,74.59
2019-03-26T06:37:17.986Z,74.74
2019-03-26T06:42:18.216Z,74.77
2019-03-26T06:47:21.239Z,73.35
2019-03-26T06:52:25.001Z,72.77
2019-03-26T06:57:35.391Z,71.75
2019-03-26T07:02:31.316Z,71.70
2019-03-26T07:07:33.584Z,71.77
2019-03-26T07:12:37.060Z,71.38
2019-03-26T07:17:39.484Z,70.60
2019-03-26T07:22:41.687Z,70.72
2019-03-26T07:27:43.940Z,70.78
2019-03-26T07:32:46.339Z,70.61
2019-03-26T07:37:48.614Z,70.12
2019-03-26T07:42:50.772Z,69.22
2019-03-26T07:47:53.263Z,68.80
2019-03-26T07:52:56.474Z,69.23
2019-03-26T07:57:59.162Z,68.40
2019-03-26T08:03:01.497Z,67.71
2019-03-26T08:08:04.374Z,67.98
2019-03-26T08:13:06.974Z,67.36
2019-03-26T08:18:09.244Z,65.55
2019-03-26T08:23:11.643Z,65.07
2019-03-26T08:28:13.920Z,65.63
2019-03-26T08:33:16.728Z,64.93
2019-03-26T08:38:19.448Z,63.36
2019-03-26T08:43:21.696Z,63.33
2019-03-26T08:48:24.095Z,62.98
2019-03-26T08:53:27.611Z,61.83
2019-03-26T08:58:31.475Z,61.98
2019-03-26T09:03:33.654Z,60.89
2019-03-26T09:08:35.925Z,61.42
2019-03-26T09:13:38.856Z,62.21
2019-03-26T09:18:42.112Z,61.72
2019-03-26T09:23:44.710Z,60.64
2019-03-26T09:28:48.018Z,59.40
2019-03-26T09:33:50.809Z,59.93
2019-03-26T09:38:53.865Z,58.58
2019-03-26T09:43:56.686Z,56.66
2019-03-26T09:48:59.005Z,57.73
2019-03-26T09:54:01.644Z,60.28
2019-03-26T09:59:04.460Z,58.49
2019-03-26T10:04:06.599Z,58.00
2019-03-26T10:09:08.831Z,58.27
2019-03-26T10:14:11.100Z,57.68
2019-03-26T10:19:16.846Z,57.88
2019-03-26T10:24:18.332Z,55.93
2019-03-26T10:29:29.990Z,56.00
2019-03-26T10:34:24.985Z,55.16
2019-03-26T10:39:27.554Z,54.89
2019-03-26T10:44:29.870Z,54.61
2019-03-26T10:49:32.690Z,55.15
2019-03-26T10:54:35.372Z,54.07
2019-03-26T10:59:38.132Z,53.52
2019-03-26T11:04:40.507Z,52.79
2019-03-26T11:09:43.565Z,52.81
2019-03-26T11:14:46.188Z,53.85
2019-03-26T11:19:49.040Z,52.90
2019-03-26T11:24:51.355Z,54.21
2019-03-26T11:29:53.529Z,53.09
2019-03-26T11:34:57.850Z,54.82
2019-03-26T11:40:00.437Z,53.63
2019-03-26T11:45:03.504Z,50.71
2019-03-26T11:50:05.810Z,52.31
2019-03-26T11:55:08.344Z,51.44
2019-03-26T12:00:12.947Z,53.16
2019-03-26T12:05:15.270Z,49.53
2019-03-26T12:10:18.022Z,51.32
2019-03-26T12:15:20.743Z,49.12
2019-03-26T12:20:23.133Z,51.15
2019-03-26T12:25:26.370Z,48.49
2019-03-26T12:30:33.470Z,48.80
2019-03-26T12:35:35.930Z,49.90
2019-03-26T12:40:38.231Z,49.81
2019-03-26T12:45:42.742Z,48.91
2019-03-26T12:50:46.927Z,48.82
2019-03-26T12:55:52.113Z,48.36
2019-03-26T13:00:55.017Z,46.38
2019-03-26T13:05:57.824Z,46.88
2019-03-26T13:11:00.049Z,45.89
2019-03-26T13:16:02.312Z,46.89
2019-03-26T13:21:04.742Z,46.74
2019-03-26T13:26:06.954Z,47.34
2019-03-26T13:31:09.242Z,48.73
2019-03-26T13:36:11.468Z,46.18
2019-03-26T13:41:13.770Z,49.49
2019-03-26T13:46:15.918Z,46.73
2019-03-26T13:51:18.086Z,46.59
2019-03-26T13:56:20.335Z,48.08
2019-03-26T14:01:22.646Z,47.94
2019-03-26T14:06:24.856Z,47.16
2019-03-26T14:11:27.439Z,48.60
2019-03-26T14:16:29.711Z,47.27
2019-03-26T14:21:32.301Z,46.06
2019-03-26T14:26:35.249Z,45.88
2019-03-26T14:31:37.547Z,48.91
2019-03-26T14:36:39.775Z,46.99
2019-03-26T14:41:42.044Z,45.91
2019-03-26T14:46:44.513Z,46.33
2019-03-26T14:51:46.789Z,46.30
2019-03-26T14:56:49.106Z,48.18
2019-03-26T15:01:51.404Z,47.22
2019-03-26T15:06:53.564Z,48.92
2019-03-26T15:11:55.753Z,47.62
2019-03-26T15:16:58.065Z,48.08
2019-03-26T15:22:00.748Z,46.09
2019-03-26T15:27:03.649Z,47.63
2019-03-26T15:32:05.838Z,48.00
2019-03-26T15:37:10.061Z,46.85
2019-03-26T15:42:12.412Z,48.92
2019-03-26T15:47:14.853Z,47.96
2019-03-26T15:52:17.533Z,49.34
2019-03-26T15:57:20.454Z,48.86
2019-03-26T16:02:22.682Z,48.34
2019-03-26T16:07:24.903Z,49.30
2019-03-26T16:12:40.262Z,50.83
2019-03-26T16:17:32.193Z,49.57
2019-03-26T16:22:38.687Z,50.79
2019-03-26T16:27:40.868Z,51.94
2019-03-26T16:32:48.374Z,49.65
2019-03-26T16:37:50.991Z,50.58
2019-03-26T16:42:53.341Z,50.86
2019-03-26T16:47:56.358Z,51.82
2019-03-26T16:52:58.768Z,51.26
2019-03-26T16:58:00.990Z,52.41
2019-03-26T17:03:04.694Z,52.65
2019-03-26T17:08:08.613Z,53.32
2019-03-26T17:13:10.907Z,54.55
2019-03-26T17:18:13.192Z,53.87
2019-03-26T17:23:15.838Z,54.83
2019-03-26T17:28:18.510Z,55.97
2019-03-26T17:33:20.805Z,57.19
2019-03-26T17:38:23.373Z,56.95
2019-03-26T17:43:25.996Z,57.46
2019-03-26T17:48:28.270Z,58.08
2019-03-26T17:53:30.865Z,58.89
2019-03-26T17:58:33.266Z,59.97
2019-03-26T18:03:37.808Z,60.34
2019-03-26T18:08:40.184Z,61.01
2019-03-26T18:13:44.710Z,61.15
2019-03-26T18:18:47.382Z,61.42
2019-03-26T18:23:49.703Z,61.09
2019-03-26T18:28:55.447Z,61.57
2019-03-26T18:33:57.966Z,62.18
2019-03-26T18:39:00.466Z,62.04
2019-03-26T18:44:02.862Z,62.36
2019-03-26T18:49:05.181Z,63.08
2019-03-26T18:54:07.477Z,63.60
2019-03-26T18:59:10.184Z,64.40
2019-03-26T19:04:12.333Z,64.60
2019-03-26T19:09:14.474Z,64.66
2019-03-26T19:14:16.667Z,64.91
2019-03-26T19:19:18.933Z,65.04
2019-03-26T19:24:21.211Z,66.25
2019-03-26T19:29:23.483Z,66.24
2019-03-26T19:34:25.710Z,66.76
2019-03-26T19:39:27.858Z,67.67
2019-03-26T19:44:30.154Z,67.89
2019-03-26T19:49:32.539Z,67.31
2019-03-26T19:54:34.877Z,67.24
2019-03-26T19:59:37.213Z,68.20
2019-03-26T20:04:40.587Z,68.85
2019-03-26T20:09:42.807Z,69.44
2019-03-26T20:14:44.986Z,69.14
2019-03-26T20:19:47.283Z,69.65
2019-03-26T20:24:49.518Z,69.87
2019-03-26T20:29:52.040Z,69.82
2019-03-26T20:34:54.276Z,69.82
2019-03-26T20:39:56.601Z,70.93
2019-03-26T20:44:58.904Z,70.41
2019-03-26T20:50:01.327Z,71.20
2019-03-26T20:55:04.155Z,70.31
2019-03-26T21:00:07.245Z,71.04
2019-03-26T21:05:10.962Z,71.92
2019-03-26T21:10:13.691Z,72.64
2019-03-26T21:15:16.147Z,72.22
2019-03-26T21:20:18.936Z,72.74
2019-03-26T21:25:21.187Z,72.06
2019-03-26T21:30:23.574Z,71.78
2019-03-26T21:35:28.817Z,71.19
2019-03-26T21:40:30.410Z,72.76
2019-03-26T21:45:36.632Z,72.78
2019-03-26T21:50:38.854Z,73.65
2019-03-26T21:55:41.175Z,73.43
2019-03-26T22:00:44.451Z,73.27
2019-03-26T22:05:48.102Z,73.84
2019-03-26T22:10:50.503Z,73.48
2019-03-26T22:15:52.803Z,74.26
2019-03-26T22:20:55.007Z,74.51
2019-03-26T22:25:57.182Z,74.52
2019-03-26T22:30:59.572Z,74.16
2019-03-26T22:36:01.788Z,74.00
2019-03-26T22:41:04.181Z,74.14
2019-03-26T22:46:06.445Z,75.11
2019-03-26T22:51:08.830Z,74.42
2019-03-26T22:56:10.999Z,75.93
2019-03-26T23:01:14.092Z,75.42
2019-03-26T23:06:16.268Z,75.53
2019-03-26T23:11:18.737Z,75.15
2019-03-26T23:16:20.852Z,75.23
2019-03-26T23:21:23.289Z,76.22
2019-03-26T23:26:25.594Z,75.94
2019-03-26T23:31:30.357Z,76.19
2019-03-26T23:36:32.520Z,75.67
2019-03-26T23:41:34.714Z,75.47
2019-03-26T23:46:36.889Z,75.41
2019-03-26T23:51:39.079Z,75.98
2019-03-26T23:56:41.350Z,76.28
